Dario Filipe — CUHY7 — position and weather

sailwx.info

Track history (hours):
 
Tides and Currents Weather Stations Pressure Air Temp Water Temp Dewpoint Dewpoint Depression Visibility Wind Speed Wind Dir Waves Ship Positions

Dario Filipe

Last reported at 2015-Jun-30 04:20 UTC. Time now 2015-Jul-07 00:16 UTC.
Position N 36°56' W 009°21'.

Length 24 m.

Type: Fishing. MMSI: 263414640.

Date/timePositionNaut miles runAvg speedWind from/ knotsBaromVisibWave heightAir tempDewpointWater temp
2015-Jun-30 04:20N 36°56' W 009°21'1 0.7
2015-Jun-30 03:28N 36°55' W 009°21'1 0.6
2015-Jun-30 02:31N 36°55' W 009°22'4 4.1
2015-Jun-30 01:33N 36°51' W 009°21'0 0.2
2015-Jun-30 00:30N 36°51' W 009°21'1 0.8
2015-Jun-29 23:14N 36°52' W 009°21'0 0.6
2015-Jun-29 22:29N 36°53' W 009°21'9 0.5
2015-Jun-29 03:33N 37°01' W 009°24'7 0.1
2015-Jun-27 03:13N 37°04' W 009°32'  
Track history (hours):
 
Tides and Currents Weather Stations Pressure Air Temp Water Temp Dewpoint Dewpoint Depression Visibility Wind Speed Wind Dir Waves Ship Positions

Dario Filipe

Last reported at 2015-Jun-30 04:20 UTC. Time now 2015-Jul-07 00:16 UTC.
Position N 36°56' W 009°21'.

Length 24 m.

Type: Fishing. MMSI: 263414640.

Date/timePositionNaut miles runAvg speedWind from/ knotsBaromVisibWave heightAir tempDewpointWater temp
2015-Jun-30 04:20N 36°56' W 009°21'1 0.7
2015-Jun-30 03:28N 36°55' W 009°21'1 0.6
2015-Jun-30 02:31N 36°55' W 009°22'4 4.1
2015-Jun-30 01:33N 36°51' W 009°21'0 0.2
2015-Jun-30 00:30N 36°51' W 009°21'1 0.8
2015-Jun-29 23:14N 36°52' W 009°21'0 0.6
2015-Jun-29 22:29N 36°53' W 009°21'9 0.5
2015-Jun-29 03:33N 37°01' W 009°24'7 0.1
2015-Jun-27 03:13N 37°04' W 009°32'  

Dump ship's entire track history